Terminal Aerodrome Forecast
Issued by NWS Duluth, MN

Home | Current Version | Previous Version | Text Only | Print | Product List | Glossary On
Versions: 1 2 3 4 5 6 7 8 9 10 11 12 13 14 15 16 17 18 19 20 21 22 23 24 25 26 27 28 29 30 31 32 33
000
FTUS43 KDLH 292047 AAA
TAFDLH
TAF AMD
KDLH 292047Z 2921/3018 20010KT 3SM -DZ BR BKN005 OVC012
     FM292300 19008KT 6SM BR SCT005 BKN012 OVC022
     FM300100 19005KT 5SM BR VCSH SCT004 OVC008
      TEMPO 3002/3006 2SM -SHRASN BR
     FM300600 08004KT 2SM -SHSN BR SCT004 OVC008=

USA.gov is the U.S. government's official web portal to all federal, state and local government web resources and services.